Time;durP1;ratioP1;P1;durP2;ratioP2;P2;SDS_P1;SDS_P2;PMS_P1;PMS_P2;Temp;Humidity;BMP_temperature;BMP_pressure;BME280_temperature;BME280_humidity;BME280_pressure;Samples;Min_cycle;Max_cycle;Signal;HPM_P1;HPM_P2
2023/07/03 00:02:04;;;;;;;7.47;3.20;;;;;;;25.32;47.27;98178.13;4902084;29;20048;-73
2023/07/03 00:04:35;;;;;;;6.55;3.00;;;;;;;25.28;47.24;98183.09;4918222;29;20038;-74
2023/07/03 00:07:04;;;;;;;4.68;3.15;;;;;;;25.26;47.35;98182.50;4918535;29;20053;-74
2023/07/03 00:09:29;;;;;;;4.43;3.20;;;;;;;25.26;47.33;98179.81;4902170;29;20044;-71
2023/07/03 00:11:55;;;;;;;5.93;3.30;;;;;;;25.25;47.58;98180.84;4915076;29;20040;-72
2023/07/03 00:14:20;;;;;;;5.75;3.30;;;;;;;25.25;47.32;98173.69;4899421;29;20503;-72
2023/07/03 00:16:46;;;;;;;5.03;3.33;;;;;;;25.24;47.54;98181.91;4899229;29;20044;-71
2023/07/03 00:19:13;;;;;;;6.50;3.03;;;;;;;25.28;47.49;98186.59;4915155;29;20047;-71
2023/07/03 00:21:45;;;;;;;5.47;3.13;;;;;;;25.27;47.57;98179.59;4899409;29;20032;-71
2023/07/03 00:24:11;;;;;;;5.30;3.33;;;;;;;25.25;47.70;98178.19;4899620;29;20029;-71
2023/07/03 00:26:37;;;;;;;6.25;3.40;;;;;;;25.23;47.73;98173.06;4898908;29;20080;-71
2023/07/03 00:29:03;;;;;;;6.25;3.00;;;;;;;25.23;47.71;98172.25;4898860;29;20040;-71
2023/07/03 00:31:29;;;;;;;11.52;3.38;;;;;;;25.26;47.78;98180.63;4899361;29;20039;-71
2023/07/03 00:33:54;;;;;;;6.43;3.60;;;;;;;25.27;47.89;98189.47;4898590;29;20051;-70
2023/07/03 00:36:20;;;;;;;6.40;4.55;;;;;;;25.27;48.02;98184.94;4914838;29;20040;-71
2023/07/03 00:38:45;;;;;;;9.23;6.60;;;;;;;25.25;47.82;98183.53;4898971;29;20035;-71
2023/07/03 00:41:11;;;;;;;11.73;7.80;;;;;;;25.28;47.83;98186.59;4898796;29;20406;-71
2023/07/03 00:43:43;;;;;;;14.45;7.50;;;;;;;25.28;47.64;98193.78;4915313;29;20039;-71
2023/07/03 00:46:09;;;;;;;11.32;7.78;;;;;;;25.23;47.94;98174.94;4902646;29;20051;-71
2023/07/03 00:48:35;;;;;;;16.08;8.10;;;;;;;25.28;47.91;98196.47;4902538;29;20492;-71
2023/07/03 00:51:01;;;;;;;10.35;7.25;;;;;;;25.27;47.72;98197.50;4913617;29;20047;-71
2023/07/03 00:53:26;;;;;;;9.73;7.13;;;;;;;25.26;47.69;98196.66;4905489;29;20402;-71
2023/07/03 00:55:52;;;;;;;9.85;6.93;;;;;;;25.25;47.75;98199.56;4921323;29;20043;-71
2023/07/03 00:58:17;;;;;;;9.60;6.90;;;;;;;25.23;48.18;98206.97;4921366;29;20391;-71
2023/07/03 01:00:47;;;;;;;9.13;6.60;;;;;;;25.20;47.80;98194.88;4905324;29;20047;-71
2023/07/03 01:03:50;;;;;;;9.07;6.35;;;;;;;25.21;48.06;98196.53;4889933;29;20035;-71
2023/07/03 01:06:21;;;;;;;11.32;6.28;;;;;;;25.18;48.21;98193.50;4921806;29;20135;-71
2023/07/03 01:08:48;;;;;;;12.63;5.93;;;;;;;25.15;48.05;98193.94;4905473;29;20036;-71
2023/07/03 01:11:13;;;;;;;8.20;5.13;;;;;;;25.13;48.13;98194.16;4889732;29;20035;-71
2023/07/03 01:13:39;;;;;;;8.60;5.25;;;;;;;25.14;48.20;98202.97;4905254;29;20027;-71
2023/07/03 01:16:04;;;;;;;6.55;4.70;;;;;;;25.07;48.28;98195.06;4920981;29;20047;-71
2023/07/03 01:18:30;;;;;;;7.78;5.18;;;;;;;25.07;48.23;98209.22;4905097;29;20198;-71
2023/07/03 01:21:00;;;;;;;6.88;4.72;;;;;;;25.04;48.43;98206.19;4905231;29;20492;-71
2023/07/03 01:23:33;;;;;;;6.00;4.43;;;;;;;25.06;48.39;98207.59;4905500;29;20551;-71
2023/07/03 01:25:59;;;;;;;6.10;4.30;;;;;;;25.04;48.49;98209.66;4905427;29;20028;-71
2023/07/03 01:28:24;;;;;;;8.63;5.88;;;;;;;25.02;48.55;98209.06;4904992;29;20035;-71
2023/07/03 01:30:50;;;;;;;15.65;9.55;;;;;;;24.98;48.48;98207.88;4889324;29;20040;-71
2023/07/03 01:33:18;;;;;;;14.07;10.43;;;;;;;25.00;48.43;98213.84;4905127;29;20407;-71
2023/07/03 01:35:46;;;;;;;14.00;10.57;;;;;;;25.00;48.61;98221.00;4889020;29;20043;-71
2023/07/03 01:38:12;;;;;;;12.55;9.57;;;;;;;24.97;48.43;98213.44;4889294;29;20051;-71
2023/07/03 01:40:37;;;;;;;15.40;10.18;;;;;;;24.96;48.57;98220.66;4920577;29;20515;-71
2023/07/03 01:43:03;;;;;;;12.40;8.48;;;;;;;24.96;48.57;98217.97;4920649;29;20031;-71
2023/07/03 01:45:28;;;;;;;10.80;8.05;;;;;;;24.92;48.96;98228.28;4937578;29;20047;-71
2023/07/03 01:47:54;;;;;;;12.77;8.02;;;;;;;24.91;48.79;98218.66;4920056;29;20122;-71
2023/07/03 01:50:22;;;;;;;10.88;7.38;;;;;;;24.91;48.73;98218.66;4905129;29;20403;-71
2023/07/03 01:52:54;;;;;;;10.85;7.43;;;;;;;24.92;48.55;98225.63;4904624;29;20031;-71
2023/07/03 01:55:49;;;;;;;10.65;6.57;;;;;;;24.93;48.95;98221.09;4887947;29;20035;-70
2023/07/03 01:58:24;;;;;;;9.40;6.60;;;;;;;24.92;48.98;98224.78;4906680;29;20102;-72
2023/07/03 02:00:51;;;;;;;7.82;5.90;;;;;;;24.92;48.99;98225.63;4920849;29;20111;-73
2023/07/03 02:03:25;;;;;;;8.43;5.65;;;;;;;24.86;48.76;98205.16;4904624;29;20554;-73
2023/07/03 02:05:51;;;;;;;8.38;5.53;;;;;;;24.93;48.91;98229.09;4904515;29;20098;-73
2023/07/03 02:08:17;;;;;;;9.10;5.55;;;;;;;24.93;49.08;98226.44;4920461;29;20459;-73
2023/07/03 02:10:43;;;;;;;8.07;5.00;;;;;;;24.93;48.70;98227.25;4904357;29;20028;-73
2023/07/03 02:13:08;;;;;;;7.05;4.95;;;;;;;24.92;48.96;98230.13;4936714;29;20415;-72
2023/07/03 02:15:35;;;;;;;7.55;4.75;;;;;;;24.91;48.85;98239.19;4919781;29;20040;-73
2023/07/03 02:18:01;;;;;;;7.30;4.88;;;;;;;24.93;48.86;98247.78;4904455;29;20032;-73
2023/07/03 02:20:28;;;;;;;6.30;4.90;;;;;;;24.90;49.03;98251.69;4920054;29;20034;-73
2023/07/03 02:22:53;;;;;;;8.43;4.40;;;;;;;24.91;48.94;98249.88;4920263;29;20055;-73
2023/07/03 02:25:19;;;;;;;7.18;4.70;;;;;;;24.93;49.02;98245.91;4904128;29;20435;-73
2023/07/03 02:27:44;;;;;;;7.97;4.68;;;;;;;24.92;49.00;98246.97;4920199;29;20031;-73
2023/07/03 02:30:11;;;;;;;7.13;4.40;;;;;;;24.91;49.00;98249.88;4919777;29;20027;-73
2023/07/03 02:32:37;;;;;;;8.32;4.40;;;;;;;24.88;49.05;98247.66;4919897;29;20044;-73
2023/07/03 02:35:04;;;;;;;8.30;4.32;;;;;;;24.87;49.29;98254.00;4903638;29;20040;-73
2023/07/03 02:37:29;;;;;;;5.97;4.03;;;;;;;24.86;49.23;98252.38;4904084;29;20030;-73
2023/07/03 02:39:55;;;;;;;9.00;4.65;;;;;;;24.86;49.17;98258.53;4903874;29;20399;-73
2023/07/03 02:42:20;;;;;;;7.13;4.13;;;;;;;24.86;49.19;98263.88;4919799;29;20477;-73
2023/07/03 02:44:46;;;;;;;6.78;4.40;;;;;;;24.84;49.57;98265.13;4919671;29;20031;-74
2023/07/03 02:47:11;;;;;;;7.53;4.75;;;;;;;24.84;49.45;98273.13;4936349;29;20472;-73
2023/07/03 02:49:37;;;;;;;6.95;4.55;;;;;;;24.83;49.31;98272.34;4903177;29;20050;-73
2023/07/03 02:52:02;;;;;;;6.57;4.10;;;;;;;24.82;49.39;98270.69;4919060;29;20031;-73
2023/07/03 02:54:28;;;;;;;12.75;4.40;;;;;;;24.79;49.55;98267.66;4903502;29;20040;-73
2023/07/03 02:56:53;;;;;;;6.68;4.60;;;;;;;24.83;49.43;98271.53;4918942;29;20051;-73
2023/07/03 02:59:19;;;;;;;7.90;4.63;;;;;;;24.84;49.37;98278.47;4918762;29;20479;-73
2023/07/03 03:01:44;;;;;;;5.47;4.30;;;;;;;24.90;49.09;98275.72;4935841;29;20510;-73
2023/07/03 03:04:10;;;;;;;8.35;4.60;;;;;;;24.96;49.07;98267.91;4919018;29;20042;-73
2023/07/03 03:06:36;;;;;;;6.65;4.57;;;;;;;25.13;48.82;98258.25;4918247;29;20040;-73
2023/07/03 03:09:01;;;;;;;5.90;4.05;;;;;;;25.37;48.12;98274.44;4902875;29;20115;-73
2023/07/03 03:11:27;;;;;;;5.18;3.97;;;;;;;25.64;47.40;98274.91;4902992;29;20352;-73
2023/07/03 03:13:52;;;;;;;5.60;3.97;;;;;;;25.89;46.71;98272.09;4902910;29;20503;-73
2023/07/03 03:16:18;;;;;;;5.82;4.63;;;;;;;26.14;46.39;98268.47;4918434;29;20094;-74
2023/07/03 03:18:44;;;;;;;7.78;4.45;;;;;;;26.45;45.79;98275.38;4887176;29;20039;-72
2023/07/03 03:21:09;;;;;;;6.90;4.80;;;;;;;26.76;44.97;98278.81;4918364;29;20500;-73
2023/07/03 03:23:35;;;;;;;8.88;5.70;;;;;;;27.11;44.01;98267.25;4918346;29;20042;-72
2023/07/03 03:26:00;;;;;;;7.50;5.90;;;;;;;27.53;43.23;98279.63;4902622;29;20043;-72
2023/07/03 03:28:25;;;;;;;10.60;7.72;;;;;;;27.89;42.41;98281.09;4935323;29;20039;-72
2023/07/03 03:30:51;;;;;;;12.13;8.57;;;;;;;28.29;41.88;98282.06;4902635;29;20455;-72
2023/07/03 03:33:17;;;;;;;15.48;10.65;;;;;;;28.66;40.90;98279.72;4887195;29;20039;-73
2023/07/03 03:35:45;;;;;;;12.60;10.02;;;;;;;29.03;40.08;98281.03;4918754;29;20047;-73
2023/07/03 03:38:10;;;;;;;;;;;;;;;29.39;39.12;98285.03;4918787;29;20452;-73
2023/07/03 03:40:35;;;;;;;13.75;9.00;;;;;;;29.74;38.89;98283.78;4917829;29;19919;-73
2023/07/03 03:43:01;;;;;;;10.35;8.63;;;;;;;30.12;38.21;98284.72;4902216;29;20043;-73
2023/07/03 03:45:26;;;;;;;10.00;7.75;;;;;;;30.43;37.78;98285.03;4934641;29;20500;-73
2023/07/03 03:47:52;;;;;;;10.55;7.57;;;;;;;30.53;37.54;98281.59;4886826;29;20035;-73
2023/07/03 03:50:18;;;;;;;8.90;6.43;;;;;;;30.63;37.12;98288.91;4902568;29;20039;-73
2023/07/03 03:52:44;;;;;;;9.73;6.68;;;;;;;31.23;36.14;98289.56;4902561;29;20036;-73
2023/07/03 03:55:09;;;;;;;9.77;6.72;;;;;;;31.66;35.28;98284.91;4902421;29;20122;-73
2023/07/03 03:57:35;;;;;;;9.02;6.70;;;;;;;32.02;34.65;98279.53;4902381;29;20123;-70
2023/07/03 04:00:00;;;;;;;8.80;6.05;;;;;;;32.46;34.24;98284.44;4902206;29;20111;-70
2023/07/03 04:02:26;;;;;;;8.50;6.00;;;;;;;32.87;33.63;98291.72;4917873;29;20032;-69
2023/07/03 04:04:51;;;;;;;28.23;5.85;;;;;;;33.29;33.73;98290.53;4901852;29;20043;-69
2023/07/03 04:07:17;;;;;;;22.92;5.10;;;;;;;33.64;32.84;98291.44;4917921;29;20039;-69
2023/07/03 04:09:42;;;;;;;20.63;5.35;;;;;;;33.76;32.83;98295.72;4934997;29;20035;-70
2023/07/03 04:12:08;;;;;;;14.63;5.28;;;;;;;34.17;32.44;98301.66;4902193;29;20128;-69
2023/07/03 04:14:33;;;;;;;20.00;5.22;;;;;;;34.51;31.77;98297.38;4918068;29;20047;-70
2023/07/03 04:17:00;;;;;;;5.88;4.97;;;;;;;34.83;30.88;98293.28;4917851;29;20032;-69
2023/07/03 04:19:27;;;;;;;6.00;5.27;;;;;;;35.22;30.46;98295.00;4919923;29;20155;-69
2023/07/03 04:21:53;;;;;;;;;;;;;;;35.55;29.84;98300.59;4921859;29;20771;-69
2023/07/03 04:24:18;;;;;;;7.03;5.22;;;;;;;35.96;28.95;98302.75;4938414;29;19910;-69
2023/07/03 04:26:44;;;;;;;8.75;5.28;;;;;;;36.40;28.05;98298.81;4921965;29;20091;-69
2023/07/03 04:29:09;;;;;;;8.13;5.43;;;;;;;36.80;27.19;98303.88;4938787;29;20496;-69
2023/07/03 04:31:35;;;;;;;9.13;5.32;;;;;;;37.18;26.48;98306.41;4938363;29;20082;-69
2023/07/03 04:34:01;;;;;;;12.20;5.17;;;;;;;37.60;26.14;98307.19;4921689;29;20038;-70
2023/07/03 04:36:26;;;;;;;14.85;5.15;;;;;;;37.92;25.57;98303.47;4905147;29;20071;-69
2023/07/03 04:38:57;;;;;;;13.52;5.47;;;;;;;38.18;25.22;98316.56;4889391;29;20040;-69
2023/07/03 04:41:24;;;;;;;11.43;5.70;;;;;;;38.67;24.44;98312.06;4938754;29;20423;-69
2023/07/03 04:43:51;;;;;;;19.50;5.50;;;;;;;39.04;24.20;98311.91;4938157;29;20036;-69
2023/07/03 04:46:23;;;;;;;21.80;5.82;;;;;;;39.36;23.87;98315.38;4938194;29;20411;-69
2023/07/03 04:48:49;;;;;;;21.70;5.93;;;;;;;39.63;23.66;98311.59;4907379;29;20031;-69
2023/07/03 04:51:14;;;;;;;13.43;5.18;;;;;;;39.94;22.77;98313.38;4905445;29;20098;-70
2023/07/03 04:53:40;;;;;;;14.02;5.70;;;;;;;40.30;22.24;98320.47;4938282;29;20159;-70
2023/07/03 04:56:07;;;;;;;15.68;5.63;;;;;;;40.64;21.74;98327.00;4905490;29;20079;-70
2023/07/03 04:58:32;;;;;;;9.98;5.70;;;;;;;40.94;21.48;98329.84;4905721;29;20039;-70
2023/07/03 05:00:57;;;;;;;9.25;5.10;;;;;;;41.19;21.59;98328.91;4921015;29;20040;-70
2023/07/03 05:03:23;;;;;;;16.60;5.28;;;;;;;41.55;21.21;98326.81;4904828;29;20562;-71
2023/07/03 05:05:48;;;;;;;13.73;5.20;;;;;;;41.85;20.57;98333.06;4937949;29;20031;-70
2023/07/03 05:08:14;;;;;;;9.30;5.30;;;;;;;42.16;20.67;98329.09;4937977;29;20031;-70
2023/07/03 05:10:40;;;;;;;9.80;5.47;;;;;;;42.49;20.05;98331.03;4921024;29;20027;-70
2023/07/03 05:13:05;;;;;;;14.23;8.27;;;;;;;42.68;19.78;98333.28;4905320;29;20486;-69
2023/07/03 05:15:31;;;;;;;18.83;7.53;;;;;;;42.98;19.43;98344.88;4937573;29;20051;-70
2023/07/03 05:17:56;;;;;;;12.83;9.87;;;;;;;43.22;19.06;98337.78;4920364;29;20098;-70
2023/07/03 05:20:22;;;;;;;17.23;8.00;;;;;;;43.48;18.61;98329.22;4920733;29;20028;-70
2023/07/03 05:22:48;;;;;;;8.43;6.20;;;;;;;43.71;18.51;98329.53;4920956;29;20035;-70
2023/07/03 05:25:13;;;;;;;11.50;8.00;;;;;;;43.87;18.45;98343.38;4920709;29;20034;-69
2023/07/03 05:27:39;;;;;;;12.73;9.03;;;;;;;44.12;18.23;98334.22;4904920;29;20039;-70
2023/07/03 05:30:05;;;;;;;9.57;7.03;;;;;;;44.39;17.55;98329.88;4920185;29;20611;-70
2023/07/03 05:32:32;;;;;;;13.70;7.40;;;;;;;44.63;17.51;98342.72;4904795;29;20031;-69
2023/07/03 05:34:57;;;;;;;9.55;7.15;;;;;;;44.85;17.26;98330.31;4904805;29;20361;-69
2023/07/03 05:37:23;;;;;;;10.73;6.30;;;;;;;44.95;17.14;98340.75;4937432;29;20059;-70
2023/07/03 05:39:49;;;;;;;9.50;6.23;;;;;;;45.14;17.22;98342.03;4904640;29;20036;-70
2023/07/03 05:42:16;;;;;;;12.85;6.18;;;;;;;45.28;17.62;98339.59;4920243;29;20079;-71
2023/07/03 05:44:42;;;;;;;6.25;4.10;;;;;;;45.44;17.23;98345.13;4936227;29;20414;-79
2023/07/03 05:47:08;;;;;;;9.10;4.30;;;;;;;45.35;17.30;98347.22;4910630;29;20028;-86
2023/07/03 05:49:33;;;;;;;18.77;4.10;;;;;;;45.44;16.92;98344.31;4904827;29;20499;-81
2023/07/03 05:51:59;;;;;;;7.83;4.07;;;;;;;45.46;17.20;98342.00;4904797;29;20071;-80
2023/07/03 05:54:24;;;;;;;8.33;4.10;;;;;;;45.49;17.61;98335.75;4936045;29;20475;-78
2023/07/03 05:56:57;;;;;;;11.23;4.37;;;;;;;45.61;17.52;98340.34;4919323;29;20063;-80
2023/07/03 05:59:23;;;;;;;8.43;4.22;;;;;;;45.66;17.15;98348.34;4920437;29;20376;-84
2023/07/03 06:01:49;;;;;;;16.70;4.93;;;;;;;45.66;16.81;98342.84;4888935;29;20047;-83
2023/07/03 06:04:16;;;;;;;15.27;4.60;;;;;;;45.76;17.06;98349.72;4904737;29;20035;-84
2023/07/03 06:06:41;;;;;;;10.98;4.95;;;;;;;46.04;16.44;98349.56;4884974;29;20036;-84
2023/07/03 06:09:07;;;;;;;8.17;4.50;;;;;;;46.33;16.04;98345.41;4904756;29;20055;-80
2023/07/03 06:11:33;;;;;;;8.60;5.53;;;;;;;46.46;15.64;98350.75;4904589;29;20411;-78
2023/07/03 06:13:58;;;;;;;7.10;4.90;;;;;;;46.56;15.93;98347.41;4904162;29;20040;-79
2023/07/03 06:16:27;;;;;;;10.60;4.70;;;;;;;46.67;15.86;98358.63;4888220;29;20499;-78
2023/07/03 06:18:52;;;;;;;15.30;5.88;;;;;;;46.82;15.52;98360.47;4920454;29;20036;-81
2023/07/03 06:21:18;;;;;;;13.67;4.87;;;;;;;46.83;15.69;98358.50;4919970;29;20043;-80
2023/07/03 06:23:43;;;;;;;8.93;4.47;;;;;;;46.88;15.70;98358.22;4904281;29;20565;-80
2023/07/03 06:26:10;;;;;;;8.17;4.80;;;;;;;46.96;15.36;98350.88;4903932;29;20039;-79
2023/07/03 06:28:36;;;;;;;6.78;4.35;;;;;;;46.94;15.51;98362.31;4904387;29;20040;-79
2023/07/03 06:31:01;;;;;;;9.67;4.93;;;;;;;46.94;15.74;98352.03;4904000;29;20487;-78
2023/07/03 06:33:27;;;;;;;9.93;4.37;;;;;;;46.98;15.81;98357.63;4903820;29;20050;-80
2023/07/03 06:35:52;;;;;;;8.77;4.57;;;;;;;46.97;16.01;98357.97;4904415;29;20514;-78
2023/07/03 06:38:18;;;;;;;7.93;4.90;;;;;;;47.05;15.08;98359.69;4919585;29;20039;-78
2023/07/03 06:40:43;;;;;;;8.63;5.00;;;;;;;47.05;15.17;98354.16;4903574;29;20031;-77
2023/07/03 06:43:09;;;;;;;8.63;4.50;;;;;;;47.04;15.28;98358.13;4902504;29;20427;-79
2023/07/03 06:45:37;;;;;;;6.38;4.40;;;;;;;46.95;15.65;98347.31;4919273;29;20055;-78
2023/07/03 06:48:02;;;;;;;10.93;4.70;;;;;;;46.89;15.47;98360.63;4903414;29;20036;-78
2023/07/03 06:50:29;;;;;;;7.80;4.60;;;;;;;46.84;15.46;98358.16;4903679;29;20048;-79
2023/07/03 06:52:54;;;;;;;9.40;4.50;;;;;;;46.83;15.78;98356.56;4902814;29;20075;-78
2023/07/03 06:55:20;;;;;;;9.93;4.67;;;;;;;46.77;15.75;98355.28;4902940;29;20130;-78
2023/07/03 06:57:45;;;;;;;8.63;4.70;;;;;;;46.68;15.59;98361.03;4935279;29;20034;-79
2023/07/03 07:00:11;;;;;;;8.40;4.67;;;;;;;46.61;15.82;98357.34;4918028;29;20407;-79
2023/07/03 07:02:37;;;;;;;8.38;4.50;;;;;;;46.50;15.60;98354.38;4902136;29;20026;-80
2023/07/03 07:05:02;;;;;;;14.23;5.20;;;;;;;46.43;16.20;98363.31;4902330;29;20419;-79
2023/07/03 07:07:28;;;;;;;8.23;4.77;;;;;;;46.34;15.85;98358.03;4918773;29;20555;-79
2023/07/03 07:09:53;;;;;;;6.30;4.40;;;;;;;46.27;16.61;98363.41;4902766;29;20283;-78
2023/07/03 07:12:19;;;;;;;9.33;4.87;;;;;;;45.97;16.11;98361.22;4903048;29;20031;-79
2023/07/03 07:14:45;;;;;;;8.37;4.93;;;;;;;45.97;15.88;98360.44;4918813;29;20047;-78
2023/07/03 07:17:10;;;;;;;6.50;4.90;;;;;;;45.91;15.97;98359.94;4902759;29;20047;-78
2023/07/03 07:19:36;;;;;;;9.13;4.77;;;;;;;45.79;16.32;98360.84;4934155;29;20122;-78
2023/07/03 07:22:01;;;;;;;12.50;4.90;;;;;;;45.65;16.58;98360.53;4919270;29;20488;-77
2023/07/03 07:24:28;;;;;;;14.37;4.70;;;;;;;45.46;16.42;98370.34;4903233;29;20036;-77
2023/07/03 07:26:54;;;;;;;8.60;4.80;;;;;;;45.31;17.05;98365.63;4919118;29;20032;-78
2023/07/03 07:29:21;;;;;;;8.98;5.05;;;;;;;45.17;16.64;98371.63;4903530;29;20122;-78
2023/07/03 07:31:46;;;;;;;9.82;5.30;;;;;;;45.10;17.42;98366.72;4919300;29;20410;-79
2023/07/03 07:34:12;;;;;;;10.47;4.50;;;;;;;44.98;17.13;98366.81;4935736;29;20040;-78
2023/07/03 07:36:38;;;;;;;9.13;4.73;;;;;;;44.90;17.24;98370.50;4903205;29;20031;-79
2023/07/03 07:39:04;;;;;;;9.15;4.90;;;;;;;44.82;17.46;98363.22;4902943;29;20119;-79
2023/07/03 07:41:29;;;;;;;5.93;4.43;;;;;;;44.74;17.05;98376.81;4903204;29;20044;-79
2023/07/03 07:43:55;;;;;;;6.20;4.87;;;;;;;44.67;17.34;98379.38;4887431;29;20039;-79
2023/07/03 07:46:25;;;;;;;8.80;4.70;;;;;;;44.53;17.96;98371.50;4918760;29;20159;-77
2023/07/03 07:48:50;;;;;;;8.82;5.13;;;;;;;44.45;17.78;98375.22;4904120;29;20078;-79
2023/07/03 07:51:16;;;;;;;9.73;5.10;;;;;;;44.33;17.78;98376.09;4887543;29;20052;-78
2023/07/03 07:53:41;;;;;;;7.23;4.70;;;;;;;44.19;17.74;98373.75;4904614;29;20055;-79
2023/07/03 07:56:07;;;;;;;8.60;5.07;;;;;;;44.06;18.12;98381.22;4903288;29;20039;-78
2023/07/03 07:58:33;;;;;;;7.57;5.10;;;;;;;43.97;18.52;98382.50;4902750;29;20086;-78
2023/07/03 08:00:59;;;;;;;6.15;4.57;;;;;;;43.85;18.10;98384.13;4917866;29;20031;-79
2023/07/03 08:03:25;;;;;;;6.87;5.10;;;;;;;43.78;18.28;98380.34;4902421;29;20047;-78
2023/07/03 08:05:58;;;;;;;7.63;5.30;;;;;;;43.14;18.28;98377.97;4902724;29;20047;-77
2023/07/03 08:08:26;;;;;;;9.32;5.10;;;;;;;43.17;18.28;98374.53;4903151;29;20039;-77
2023/07/03 08:10:55;;;;;;;6.95;4.90;;;;;;;43.14;18.35;98377.16;4903248;29;20024;-78
2023/07/03 08:13:21;;;;;;;8.48;4.82;;;;;;;43.04;18.65;98377.63;4902618;29;20377;-78
2023/07/03 08:15:46;;;;;;;8.97;5.30;;;;;;;43.08;18.67;98393.06;4886597;29;20042;-78
2023/07/03 08:18:12;;;;;;;9.33;5.03;;;;;;;43.05;18.81;98384.69;4918353;29;20071;-79
2023/07/03 08:20:38;;;;;;;7.13;4.57;;;;;;;43.05;18.66;98384.69;4918354;29;20032;-79
2023/07/03 08:23:03;;;;;;;8.83;4.97;;;;;;;42.98;18.45;98379.78;4902443;29;20103;-78
2023/07/03 08:25:29;;;;;;;6.57;4.97;;;;;;;42.96;19.25;98388.31;4886824;29;20027;-83
2023/07/03 08:27:55;;;;;;;6.40;4.83;;;;;;;42.94;19.37;98387.09;4902210;29;20043;-77
2023/07/03 08:30:22;;;;;;;9.33;5.30;;;;;;;42.95;19.39;98386.75;4902377;29;20039;-78
2023/07/03 08:32:47;;;;;;;6.32;4.78;;;;;;;42.92;19.49;98392.91;4934258;29;20040;-83
2023/07/03 08:35:13;;;;;;;6.50;4.83;;;;;;;42.89;19.62;98387.28;4902312;29;20046;-81
2023/07/03 08:37:39;;;;;;;7.03;5.30;;;;;;;42.86;20.05;98388.78;4917351;29;20098;-82
2023/07/03 08:40:06;;;;;;;5.43;4.53;;;;;;;42.76;20.12;98381.75;4902501;29;20035;-83
2023/07/03 08:42:34;;;;;;;;;;;;;;;42.24;21.03;98380.34;4887096;29;20040;-79
2023/07/03 08:45:00;;;;;;;5.95;4.72;;;;;;;41.61;21.62;98379.44;4902419;29;19918;-81
2023/07/03 08:47:27;;;;;;;8.13;4.70;;;;;;;41.10;21.68;98380.16;4902831;29;20118;-83
2023/07/03 08:49:52;;;;;;;8.25;4.85;;;;;;;41.22;21.53;98366.56;4886975;29;20032;-82
2023/07/03 08:52:24;;;;;;;7.63;4.80;;;;;;;41.18;21.27;98379.31;4902232;29;20480;-80
2023/07/03 08:54:49;;;;;;;6.75;4.60;;;;;;;41.25;21.50;98372.53;4902742;29;20047;-81
2023/07/03 08:57:15;;;;;;;8.18;5.20;;;;;;;41.25;21.11;98370.59;4886561;29;20590;-83
2023/07/03 08:59:40;;;;;;;6.90;5.00;;;;;;;41.22;21.24;98374.78;4902154;29;20475;-79
2023/07/03 09:02:27;;;;;;;6.40;4.60;;;;;;;41.27;21.06;98382.00;4886831;29;20044;-81
2023/07/03 09:05:28;;;;;;;6.72;4.75;;;;;;;41.16;21.46;98381.56;4918670;29;20103;-78
2023/07/03 09:07:56;;;;;;;11.05;5.22;;;;;;;41.11;20.99;98389.97;4846119;29;20458;-79
2023/07/03 09:10:24;;;;;;;10.05;4.85;;;;;;;41.03;21.30;98383.41;4830469;29;20045;-79
2023/07/03 09:12:49;;;;;;;8.98;5.03;;;;;;;40.82;21.84;98383.28;4845676;29;20510;-79
2023/07/03 09:15:37;;;;;;;7.78;4.80;;;;;;;40.88;21.60;98386.66;4861058;29;20041;-79
2023/07/03 09:18:08;;;;;;;7.82;4.88;;;;;;;40.81;21.86;98386.34;4830208;29;20561;-80
2023/07/03 09:20:33;;;;;;;7.13;5.00;;;;;;;40.71;22.37;98392.97;4830762;29;20037;-80
2023/07/03 09:23:08;;;;;;;7.50;4.90;;;;;;;40.36;22.72;98392.19;4830104;29;20142;-79
2023/07/03 09:25:43;;;;;;;10.18;5.40;;;;;;;40.06;23.27;98389.28;4846052;29;20042;-78
2023/07/03 09:28:09;;;;;;;10.60;5.07;;;;;;;39.80;23.50;98390.88;4831012;29;20398;-79
2023/07/03 09:30:36;;;;;;;10.90;5.03;;;;;;;39.53;24.31;98388.38;4830032;29;20120;-79
2023/07/03 09:33:01;;;;;;;9.73;5.05;;;;;;;39.26;24.30;98396.44;4829818;29;20563;-79
2023/07/03 09:35:37;;;;;;;11.85;5.28;;;;;;;38.95;24.95;98390.19;4829886;29;20041;-79
2023/07/03 09:38:05;;;;;;;7.88;5.47;;;;;;;38.89;25.00;98386.78;4830399;29;20041;-79
2023/07/03 09:40:35;;;;;;;8.10;6.07;;;;;;;38.98;24.97;98384.09;4814874;29;20132;-78
2023/07/03 09:43:01;;;;;;;10.02;5.78;;;;;;;38.97;25.11;98375.13;4903345;29;20400;-79
2023/07/03 09:45:32;;;;;;;7.03;5.38;;;;;;;38.99;25.13;98375.59;4904534;29;20067;-79
2023/07/03 09:48:00;;;;;;;8.88;5.20;;;;;;;39.09;25.22;98380.00;4905206;29;20044;-78
2023/07/03 09:50:35;;;;;;;7.22;5.30;;;;;;;39.04;25.26;98383.63;4904959;29;20038;-79
2023/07/03 09:53:02;;;;;;;6.38;5.43;;;;;;;39.10;24.40;98380.81;4905019;29;20091;-78
2023/07/03 09:55:27;;;;;;;5.40;4.87;;;;;;;39.13;24.23;98378.25;4904715;29;20045;-78
2023/07/03 09:57:53;;;;;;;8.77;5.32;;;;;;;38.89;24.20;98376.69;4920241;29;20648;-77
2023/07/03 10:00:23;;;;;;;8.35;5.10;;;;;;;38.84;24.16;98373.25;4904612;29;20167;-78
2023/07/03 10:02:55;;;;;;;8.50;5.25;;;;;;;38.82;23.68;98370.06;4904862;29;20028;-79
2023/07/03 10:05:29;;;;;;;7.45;5.20;;;;;;;38.55;24.24;98372.59;4904185;29;20123;-80
2023/07/03 10:07:55;;;;;;;9.75;5.43;;;;;;;38.40;24.45;98372.16;4920270;29;20522;-79
2023/07/03 10:10:22;;;;;;;7.18;5.00;;;;;;;38.27;24.72;98376.56;4904804;29;20094;-79
2023/07/03 10:13:20;;;;;;;10.25;5.38;;;;;;;37.93;25.08;98375.13;4904856;29;20038;-79
2023/07/03 10:15:46;;;;;;;8.25;5.93;;;;;;;37.78;25.63;98379.81;4859420;29;20045;-79
2023/07/03 10:18:22;;;;;;;6.95;6.00;;;;;;;37.65;25.98;98381.41;4843546;29;20045;-80
2023/07/03 10:20:48;;;;;;;7.10;5.70;;;;;;;37.46;26.52;98372.53;4845350;29;20143;-79
2023/07/03 10:23:19;;;;;;;10.90;7.18;;;;;;;37.33;26.66;98382.31;4829076;29;20053;-79
2023/07/03 10:25:56;;;;;;;7.18;5.95;;;;;;;37.33;26.43;98376.88;4828967;29;20532;-78
2023/07/03 10:28:45;;;;;;;7.03;6.07;;;;;;;37.29;26.91;98373.97;4829406;29;20418;-78
2023/07/03 10:31:16;;;;;;;7.78;6.10;;;;;;;37.19;26.51;98371.41;4835464;29;20109;-78
2023/07/03 10:33:44;;;;;;;8.63;6.30;;;;;;;37.08;26.51;98373.50;4828919;29;20033;-78
2023/07/03 10:36:12;;;;;;;7.50;6.20;;;;;;;37.05;26.38;98373.31;4828812;29;20540;-79
2023/07/03 10:39:05;;;;;;;8.52;5.80;;;;;;;36.90;26.19;98377.13;4828913;29;20045;-78
2023/07/03 10:41:36;;;;;;;9.60;6.40;;;;;;;36.80;26.53;98371.84;4841637;29;20461;-78
2023/07/03 10:44:10;;;;;;;10.18;6.50;;;;;;;36.60;26.93;98364.84;4843887;29;20164;-81
2023/07/03 10:46:47;;;;;;;9.73;6.57;;;;;;;36.52;27.39;98371.75;4829064;29;20486;-78
2023/07/03 10:49:20;;;;;;;9.98;6.35;;;;;;;36.39;27.59;98365.97;4859278;29;20494;-77
2023/07/03 10:51:58;;;;;;;8.85;6.30;;;;;;;36.32;27.55;98372.88;4879166;29;20085;-77
2023/07/03 10:54:30;;;;;;;9.10;6.45;;;;;;;36.17;28.02;98376.63;4920801;29;20055;-78
2023/07/03 10:56:57;;;;;;;7.85;6.70;;;;;;;36.13;28.14;98370.16;4903670;29;20070;-79
2023/07/03 10:59:27;;;;;;;9.18;6.50;;;;;;;36.11;28.26;98366.94;4919281;29;20484;-79
2023/07/03 11:02:22;;;;;;;8.32;6.18;;;;;;;36.05;28.55;98366.97;4919176;29;20477;-80
2023/07/03 11:04:51;;;;;;;7.68;6.40;;;;;;;36.00;28.39;98353.47;4922122;29;20032;-79
2023/07/03 11:07:24;;;;;;;9.00;6.80;;;;;;;36.07;28.72;98361.25;4918942;29;20510;-81
2023/07/03 11:10:11;;;;;;;7.20;6.50;;;;;;;35.95;28.50;98364.44;4919519;29;20388;-79
2023/07/03 11:12:45;;;;;;;7.80;6.13;;;;;;;35.88;28.62;98365.88;4935978;29;20153;-79
2023/07/03 11:15:29;;;;;;;7.10;6.10;;;;;;;35.79;28.48;98361.13;4918970;29;20130;-79
2023/07/03 11:18:05;;;;;;;8.77;6.30;;;;;;;35.75;28.43;98364.69;4919293;29;20217;-78
2023/07/03 11:20:35;;;;;;;7.60;6.18;;;;;;;35.74;28.73;98365.75;4920197;29;20032;-78
2023/07/03 11:23:05;;;;;;;6.97;6.28;;;;;;;35.68;28.40;98365.84;4903556;29;20032;-79
2023/07/03 11:25:40;;;;;;;7.75;5.68;;;;;;;35.69;28.78;98363.91;4918744;29;20038;-78
2023/07/03 11:28:20;;;;;;;6.60;5.90;;;;;;;35.79;28.66;98363.84;4918701;29;20032;-78
2023/07/03 11:30:45;;;;;;;9.00;6.63;;;;;;;35.77;28.47;98355.19;4919583;29;20040;-78
2023/07/03 11:33:11;;;;;;;9.95;6.18;;;;;;;35.80;28.75;98356.47;4918551;29;20032;-80
2023/07/03 11:35:36;;;;;;;7.43;6.00;;;;;;;35.78;28.69;98355.97;4902739;29;20035;-79